createdAt,value
2019-04-07T00:02:26.888Z,28.95
2019-04-07T00:04:58.353Z,30.60
2019-04-07T00:07:28.887Z,29.90
2019-04-07T00:10:00.617Z,32.63
2019-04-07T00:12:31.011Z,28.47
2019-04-07T00:15:01.364Z,30.85
2019-04-07T00:17:31.579Z,31.73
2019-04-07T00:20:01.519Z,28.90
2019-04-07T00:22:31.634Z,24.65
2019-04-07T00:25:02.529Z,28.60
2019-04-07T00:27:34.140Z,25.62
2019-04-07T00:30:06.589Z,26.20
2019-04-07T00:32:37.875Z,26.45
2019-04-07T00:35:21.928Z,25.75
2019-04-07T00:37:44.796Z,25.50
2019-04-07T00:40:15.323Z,29.50
2019-04-07T00:42:45.964Z,29.80
2019-04-07T00:45:16.557Z,27.65
2019-04-07T00:47:48.421Z,26.35
2019-04-07T00:50:18.434Z,28.83
2019-04-07T00:52:49.155Z,29.75
2019-04-07T00:55:19.329Z,29.05
2019-04-07T00:57:49.501Z,27.75
2019-04-07T01:00:21.828Z,27.30
2019-04-07T01:02:52.189Z,30.92
2019-04-07T01:05:34.226Z,30.90
2019-04-07T01:07:54.293Z,29.52
2019-04-07T01:10:24.586Z,29.55
2019-04-07T01:12:55.567Z,33.18
2019-04-07T01:15:26.351Z,32.08
2019-04-07T01:17:56.867Z,31.12
2019-04-07T01:20:28.377Z,32.80
2019-04-07T01:22:58.397Z,28.40
2019-04-07T01:25:28.115Z,30.43
2019-04-07T01:27:58.630Z,32.40
2019-04-07T01:30:29.199Z,31.17
2019-04-07T01:32:59.965Z,31.33
2019-04-07T01:35:30.450Z,29.12
2019-04-07T01:38:01.577Z,34.98
2019-04-07T01:40:32.199Z,32.40
2019-04-07T01:43:04.271Z,29.67
2019-04-07T01:45:53.423Z,31.60
2019-04-07T01:48:28.279Z,33.53
2019-04-07T01:51:05.754Z,29.07
2019-04-07T01:53:40.797Z,29.98
2019-04-07T01:56:28.406Z,31.15
2019-04-07T01:59:00.393Z,27.25
2019-04-07T02:01:41.724Z,29.60
2019-04-07T02:04:16.312Z,26.23
2019-04-07T02:07:05.096Z,31.52
2019-04-07T02:09:37.944Z,29.72
2019-04-07T02:12:26.827Z,29.57
2019-04-07T02:15:15.256Z,28.23
2019-04-07T02:17:47.033Z,28.95
2019-04-07T02:20:59.794Z,27.13
2019-04-07T02:23:48.205Z,25.68
2019-04-07T02:26:31.017Z,28.65
2019-04-07T02:29:20.368Z,23.67
2019-04-07T02:32:04.171Z,25.30
2019-04-07T02:34:42.880Z,26.52
2019-04-07T02:37:33.765Z,24.47
2019-04-07T02:40:25.170Z,26.15
2019-04-07T02:43:13.307Z,21.62
2019-04-07T02:45:45.258Z,24.95
2019-04-07T02:48:29.204Z,25.25
2019-04-07T02:51:07.640Z,25.80
2019-04-07T02:53:45.616Z,22.22
2019-04-07T02:56:33.887Z,23.05
2019-04-07T02:59:12.891Z,22.32
2019-04-07T03:01:51.656Z,25.88
2019-04-07T03:04:32.941Z,20.15
2019-04-07T03:07:07.934Z,24.47
2019-04-07T03:09:45.943Z,23.62
2019-04-07T03:12:23.604Z,29.23
2019-04-07T03:15:07.638Z,26.20
2019-04-07T03:17:47.778Z,26.23
2019-04-07T03:20:30.157Z,22.65
2019-04-07T03:23:02.143Z,26.62
2019-04-07T03:25:46.654Z,27.30
2019-04-07T03:28:21.449Z,24.55
2019-04-07T03:31:12.663Z,22.82
2019-04-07T03:33:48.060Z,27.90
2019-04-07T03:36:22.741Z,26.65
2019-04-07T03:39:02.029Z,24.77
2019-04-07T03:41:47.797Z,27.40
2019-04-07T03:44:26.501Z,22.15
2019-04-07T03:47:14.945Z,25.27
2019-04-07T03:49:49.695Z,23.35
2019-04-07T03:52:28.553Z,24.85
2019-04-07T03:55:04.661Z,24.23
2019-04-07T03:57:37.667Z,24.20
2019-04-07T04:00:15.109Z,27.80
2019-04-07T04:02:52.929Z,22.42
2019-04-07T04:05:24.768Z,21.17
2019-04-07T04:07:56.780Z,24.85
2019-04-07T04:10:37.118Z,26.10
2019-04-07T04:13:12.508Z,22.95
2019-04-07T04:15:47.098Z,22.95
2019-04-07T04:18:18.298Z,27.32
2019-04-07T04:20:48.769Z,22.65
2019-04-07T04:23:19.928Z,26.70
2019-04-07T04:25:50.071Z,24.55
2019-04-07T04:28:20.421Z,22.77
2019-04-07T04:30:52.346Z,21.23
2019-04-07T04:33:23.382Z,27.42
2019-04-07T04:35:53.862Z,23.85
2019-04-07T04:38:24.335Z,23.83
2019-04-07T04:40:55.561Z,24.05
2019-04-07T04:43:27.504Z,23.60
2019-04-07T04:45:57.637Z,22.90
2019-04-07T04:48:27.843Z,24.43
2019-04-07T04:50:58.184Z,20.55
2019-04-07T04:53:30.711Z,23.00
2019-04-07T04:56:01.045Z,25.00
2019-04-07T04:58:31.174Z,24.80
2019-04-07T05:01:02.255Z,24.55
2019-04-07T05:03:33.852Z,24.00
2019-04-07T05:06:05.297Z,24.77
2019-04-07T05:08:35.917Z,23.98
2019-04-07T05:11:06.755Z,22.15
2019-04-07T05:13:37.315Z,20.25
2019-04-07T05:16:08.236Z,21.77
2019-04-07T05:18:38.393Z,24.23
2019-04-07T05:21:08.526Z,27.02
2019-04-07T05:23:38.569Z,25.43
2019-04-07T05:26:08.686Z,24.43
2019-04-07T05:28:39.596Z,25.52
2019-04-07T05:31:10.652Z,22.55
2019-04-07T05:33:41.128Z,23.27
2019-04-07T05:36:11.318Z,23.50
2019-04-07T05:38:42.081Z,22.40
2019-04-07T05:41:12.955Z,24.47
2019-04-07T05:43:43.172Z,23.83
2019-04-07T05:46:13.837Z,24.60
2019-04-07T05:48:44.513Z,25.85
2019-04-07T05:51:16.121Z,22.85
2019-04-07T05:53:47.455Z,26.12
2019-04-07T05:56:17.781Z,27.40
2019-04-07T05:58:48.392Z,23.42
2019-04-07T06:01:21.661Z,27.65
2019-04-07T06:03:50.197Z,27.25
2019-04-07T06:06:20.881Z,28.12
2019-04-07T06:08:51.853Z,24.65
2019-04-07T06:11:22.040Z,28.57
2019-04-07T06:13:51.963Z,28.60
2019-04-07T06:16:22.594Z,31.87
2019-04-07T06:18:53.859Z,30.20
2019-04-07T06:21:24.334Z,31.25
2019-04-07T06:23:58.336Z,32.98
2019-04-07T06:26:26.513Z,37.17
2019-04-07T06:28:58.791Z,37.93
2019-04-07T06:31:31.323Z,36.93
2019-04-07T06:34:00.014Z,36.77
2019-04-07T06:36:30.857Z,38.88
2019-04-07T06:39:01.443Z,40.10
2019-04-07T06:41:33.366Z,40.48
2019-04-07T06:44:11.248Z,38.28
2019-04-07T06:46:41.371Z,43.10
2019-04-07T06:49:19.744Z,41.13
2019-04-07T06:52:08.345Z,44.33
2019-04-07T06:54:53.500Z,41.60
2019-04-07T06:57:24.450Z,40.38
2019-04-07T07:00:12.535Z,40.03
2019-04-07T07:02:54.354Z,38.67
2019-04-07T07:05:26.611Z,38.42
2019-04-07T07:08:01.894Z,34.00
2019-04-07T07:10:50.856Z,35.75
2019-04-07T07:13:30.681Z,38.42
2019-04-07T07:15:58.664Z,35.15
2019-04-07T07:18:36.247Z,33.88
2019-04-07T07:21:08.167Z,36.17
2019-04-07T07:23:43.827Z,32.93
2019-04-07T07:26:11.605Z,31.68
2019-04-07T07:28:43.282Z,33.42
2019-04-07T07:31:14.279Z,34.13
2019-04-07T07:33:44.768Z,31.33
2019-04-07T07:36:17.306Z,33.75
2019-04-07T07:38:56.299Z,32.03
2019-04-07T07:41:21.147Z,31.82
2019-04-07T07:43:50.216Z,40.08
2019-04-07T07:46:22.877Z,35.35
2019-04-07T07:48:57.075Z,33.30
2019-04-07T07:51:24.823Z,33.50
2019-04-07T07:53:58.649Z,34.45
2019-04-07T07:56:26.843Z,36.65
2019-04-07T07:58:59.861Z,41.88
2019-04-07T08:01:28.734Z,40.43
2019-04-07T08:03:59.611Z,40.00
2019-04-07T08:06:30.493Z,46.68
2019-04-07T08:09:12.122Z,44.63
2019-04-07T08:11:34.705Z,42.95
2019-04-07T08:14:16.636Z,47.62
2019-04-07T08:16:44.597Z,46.98
2019-04-07T08:19:14.942Z,46.70
2019-04-07T08:21:45.627Z,49.25
2019-04-07T08:24:18.590Z,47.93
2019-04-07T08:26:48.850Z,46.73
2019-04-07T08:29:18.974Z,49.73
2019-04-07T08:31:51.524Z,50.67
2019-04-07T08:34:20.788Z,55.10
2019-04-07T08:36:50.874Z,57.20
2019-04-07T08:39:25.574Z,53.33
2019-04-07T08:41:52.902Z,50.60
2019-04-07T08:44:26.972Z,52.15
2019-04-07T08:46:58.003Z,50.78
2019-04-07T08:49:28.350Z,54.67
2019-04-07T08:51:59.025Z,58.45
2019-04-07T08:54:30.612Z,53.80
2019-04-07T08:57:00.782Z,60.08
2019-04-07T08:59:31.405Z,58.23
2019-04-07T09:02:03.210Z,68.33
2019-04-07T09:04:34.517Z,63.52
2019-04-07T09:07:05.193Z,63.58
2019-04-07T09:09:38.033Z,65.50
2019-04-07T09:12:07.121Z,58.90
2019-04-07T09:14:39.726Z,65.37
2019-04-07T09:17:11.532Z,70.47
2019-04-07T09:19:44.280Z,62.80
2019-04-07T09:22:22.152Z,60.30
2019-04-07T09:24:53.206Z,58.52
2019-04-07T09:27:41.080Z,65.17
2019-04-07T09:30:23.570Z,65.25
2019-04-07T09:33:13.736Z,72.70
2019-04-07T09:36:01.848Z,67.27
2019-04-07T09:38:51.271Z,69.58
2019-04-07T09:41:27.408Z,66.30
2019-04-07T09:44:09.171Z,74.30
2019-04-07T09:46:44.791Z,67.53
2019-04-07T09:49:24.527Z,64.75
2019-04-07T09:51:59.939Z,56.77
2019-04-07T09:54:34.094Z,62.75
2019-04-07T09:57:11.749Z,63.42
2019-04-07T09:59:54.203Z,61.02
2019-04-07T10:02:26.143Z,56.88
2019-04-07T10:05:11.140Z,63.95
2019-04-07T10:07:47.887Z,63.40
2019-04-07T10:10:36.035Z,57.88
2019-04-07T10:13:11.151Z,59.58
2019-04-07T10:15:43.193Z,57.65
2019-04-07T10:18:26.800Z,57.33
2019-04-07T10:20:58.729Z,56.80
2019-04-07T10:23:30.670Z,63.30
2019-04-07T10:26:05.393Z,57.15
2019-04-07T10:28:51.555Z,61.95
2019-04-07T10:31:29.472Z,56.70
2019-04-07T10:34:19.689Z,56.48
2019-04-07T10:36:51.479Z,56.18
2019-04-07T10:39:25.849Z,55.33
2019-04-07T10:42:06.793Z,56.65
2019-04-07T10:44:42.334Z,51.73
2019-04-07T10:47:26.254Z,48.48
2019-04-07T10:50:15.478Z,48.60
2019-04-07T10:52:47.829Z,51.08
2019-04-07T10:55:20.632Z,48.20
2019-04-07T10:58:09.097Z,41.25
2019-04-07T11:00:50.965Z,44.73
2019-04-07T11:03:25.947Z,37.93
2019-04-07T11:06:03.961Z,41.83
2019-04-07T11:08:42.253Z,42.53
2019-04-07T11:11:15.244Z,41.83
2019-04-07T11:13:47.002Z,42.48
2019-04-07T11:16:37.631Z,44.58
2019-04-07T11:19:15.350Z,43.68
2019-04-07T11:22:02.059Z,43.68
2019-04-07T11:24:33.852Z,40.38
2019-04-07T11:27:09.195Z,40.98
2019-04-07T11:29:47.096Z,40.48
2019-04-07T11:32:24.949Z,41.30
2019-04-07T11:34:59.572Z,35.63
2019-04-07T11:37:37.592Z,41.08
2019-04-07T11:40:12.810Z,42.03
2019-04-07T11:42:44.961Z,47.33
2019-04-07T11:45:27.184Z,45.25
2019-04-07T11:48:00.078Z,42.67
2019-04-07T11:50:38.009Z,43.92
2019-04-07T11:53:18.787Z,43.80
2019-04-07T11:56:06.245Z,44.20
2019-04-07T11:58:36.141Z,43.08
2019-04-07T12:01:14.410Z,43.70
2019-04-07T12:03:54.688Z,41.70
2019-04-07T12:06:28.958Z,41.08
2019-04-07T12:09:09.606Z,39.58
2019-04-07T12:11:41.870Z,36.40
2019-04-07T12:14:17.847Z,44.15
2019-04-07T12:17:08.695Z,53.10
2019-04-07T12:19:45.119Z,41.53
2019-04-07T12:22:24.981Z,39.55
2019-04-07T12:25:04.484Z,37.60
2019-04-07T12:27:43.903Z,36.60
2019-04-07T12:30:18.289Z,37.97
2019-04-07T12:33:00.028Z,37.37
2019-04-07T12:35:33.047Z,37.87
2019-04-07T12:38:21.108Z,37.97
2019-04-07T12:41:10.944Z,38.10
2019-04-07T12:43:34.598Z,51.83
2019-04-07T12:46:22.171Z,38.43
2019-04-07T12:48:59.735Z,40.03
2019-04-07T12:51:52.450Z,35.33
2019-04-07T12:54:31.086Z,39.37
2019-04-07T12:57:14.717Z,38.17
2019-04-07T12:59:57.909Z,34.50
2019-04-07T13:02:39.150Z,36.03
2019-04-07T13:05:24.065Z,34.63
2019-04-07T13:08:12.531Z,35.30
2019-04-07T13:10:46.019Z,33.13
2019-04-07T13:13:18.114Z,39.27
2019-04-07T13:16:09.138Z,33.20
2019-04-07T13:18:50.072Z,33.73
2019-04-07T13:21:24.571Z,31.17
2019-04-07T13:24:10.928Z,31.20
2019-04-07T13:26:43.480Z,32.20
2019-04-07T13:29:24.074Z,28.93
2019-04-07T13:31:57.749Z,26.40
2019-04-07T13:34:31.042Z,27.33
2019-04-07T13:37:02.351Z,26.43
2019-04-07T13:39:40.287Z,25.07
2019-04-07T13:42:09.950Z,28.10
2019-04-07T13:45:02.903Z,24.73
2019-04-07T13:47:39.470Z,22.83
2019-04-07T13:50:10.533Z,20.27
2019-04-07T13:53:01.741Z,21.87
2019-04-07T13:55:40.856Z,20.40
2019-04-07T13:58:16.061Z,22.00
2019-04-07T14:00:50.583Z,21.97
2019-04-07T14:03:31.315Z,23.40
2019-04-07T14:06:04.460Z,20.47
2019-04-07T14:08:36.131Z,18.73
2019-04-07T14:11:10.172Z,20.40
2019-04-07T14:13:43.575Z,18.53
2019-04-07T14:16:14.916Z,21.27
2019-04-07T14:18:48.994Z,20.17
2019-04-07T14:21:28.345Z,20.23
2019-04-07T14:24:09.232Z,18.40
2019-04-07T14:26:51.595Z,18.40
2019-04-07T14:29:23.172Z,16.03
2019-04-07T14:31:54.570Z,16.07
2019-04-07T14:34:36.386Z,15.40
2019-04-07T14:37:17.483Z,15.67
2019-04-07T14:40:07.222Z,16.40
2019-04-07T14:42:39.484Z,15.40
2019-04-07T14:45:14.548Z,14.77
2019-04-07T14:47:54.926Z,16.80
2019-04-07T14:50:43.074Z,13.50
2019-04-07T14:53:21.091Z,12.97
2019-04-07T14:55:56.017Z,13.40
2019-04-07T14:58:28.102Z,12.90
2019-04-07T15:01:05.522Z,12.97
2019-04-07T15:03:33.979Z,14.70
2019-04-07T15:06:03.783Z,12.97
2019-04-07T15:08:35.549Z,12.63
2019-04-07T15:11:07.968Z,12.33
2019-04-07T15:13:38.624Z,13.37
2019-04-07T15:16:08.458Z,12.93
2019-04-07T15:18:38.257Z,12.97
2019-04-07T15:21:08.040Z,12.80
2019-04-07T15:23:37.991Z,14.93
2019-04-07T15:26:08.897Z,11.67
2019-04-07T15:28:39.074Z,10.83
2019-04-07T15:31:09.643Z,12.87
2019-04-07T15:33:39.494Z,11.33
2019-04-07T15:36:09.665Z,12.67
2019-04-07T15:38:41.406Z,11.50
2019-04-07T15:41:14.035Z,11.90
2019-04-07T15:43:42.187Z,14.90
2019-04-07T15:46:14.928Z,12.63
2019-04-07T15:48:43.450Z,13.20
2019-04-07T15:51:13.608Z,21.33
2019-04-07T15:53:47.221Z,31.17
2019-04-07T15:56:18.166Z,11.67
2019-04-07T15:58:48.360Z,13.57
2019-04-07T16:01:18.052Z,12.90
2019-04-07T16:03:51.309Z,11.53
2019-04-07T16:06:19.556Z,11.97
2019-04-07T16:08:49.810Z,11.90
2019-04-07T16:11:24.107Z,12.03
2019-04-07T16:13:50.971Z,10.53
2019-04-07T16:16:21.069Z,10.47
2019-04-07T16:18:51.101Z,11.03
2019-04-07T16:21:20.796Z,11.27
2019-04-07T16:23:53.204Z,10.83
2019-04-07T16:26:22.115Z,12.87
2019-04-07T16:28:52.019Z,12.13
2019-04-07T16:31:24.225Z,12.03
2019-04-07T16:33:54.040Z,12.40
2019-04-07T16:36:25.532Z,15.88
2019-04-07T16:38:56.488Z,15.90
2019-04-07T16:41:27.711Z,16.42
2019-04-07T16:43:57.704Z,14.68
2019-04-07T16:46:28.305Z,17.32
2019-04-07T16:48:58.720Z,31.15
2019-04-07T16:51:30.686Z,34.70
2019-04-07T16:54:01.426Z,25.88
2019-04-07T16:56:32.410Z,22.10
2019-04-07T16:59:02.671Z,23.98
2019-04-07T17:01:33.510Z,18.52
2019-04-07T17:04:03.686Z,26.00
2019-04-07T17:06:35.899Z,32.93
2019-04-07T17:09:08.759Z,31.27
2019-04-07T17:11:40.780Z,20.10
2019-04-07T17:14:11.670Z,21.62
2019-04-07T17:16:45.390Z,21.37
2019-04-07T17:19:15.093Z,22.65
2019-04-07T17:21:45.175Z,21.45
2019-04-07T17:24:15.658Z,21.65
2019-04-07T17:26:46.725Z,22.93
2019-04-07T17:29:19.088Z,18.77
2019-04-07T17:31:48.712Z,23.92
2019-04-07T17:34:18.765Z,23.35
2019-04-07T17:36:53.107Z,23.92
2019-04-07T17:39:22.805Z,23.20
2019-04-07T17:41:54.116Z,28.75
2019-04-07T17:44:47.780Z,35.25
2019-04-07T17:47:21.243Z,35.35
2019-04-07T17:50:09.147Z,43.08
2019-04-07T17:52:44.125Z,50.43
2019-04-07T17:55:25.224Z,52.90
2019-04-07T17:58:01.628Z,60.75
2019-04-07T18:00:50.675Z,89.58
2019-04-07T18:03:39.089Z,73.97
2019-04-07T18:06:18.096Z,68.45
2019-04-07T18:08:50.678Z,76.28
2019-04-07T18:11:35.212Z,66.72
2019-04-07T18:14:07.802Z,67.45
2019-04-07T18:16:39.659Z,53.68
2019-04-07T18:19:11.975Z,103.80
2019-04-07T18:21:51.671Z,51.70
2019-04-07T18:24:20.638Z,41.18
2019-04-07T18:26:53.603Z,42.33
2019-04-07T18:29:41.621Z,39.53
2019-04-07T18:32:22.270Z,39.33
2019-04-07T18:34:57.041Z,41.63
2019-04-07T18:37:29.866Z,39.73
2019-04-07T18:40:18.030Z,39.05
2019-04-07T18:42:58.595Z,36.77
2019-04-07T18:45:41.470Z,39.18
2019-04-07T18:48:22.770Z,41.98
2019-04-07T18:51:10.675Z,48.33
2019-04-07T18:53:49.618Z,44.33
2019-04-07T18:56:40.186Z,44.98
2019-04-07T18:59:18.206Z,55.28
2019-04-07T19:02:13.125Z,55.33
2019-04-07T19:04:45.701Z,58.73
2019-04-07T19:07:23.548Z,62.70
2019-04-07T19:10:15.138Z,62.17
2019-04-07T19:12:51.379Z,67.95
2019-04-07T19:15:44.926Z,68.25
2019-04-07T19:18:14.424Z,65.95
2019-04-07T19:20:46.714Z,61.53
2019-04-07T19:23:19.517Z,63.45
2019-04-07T19:25:58.834Z,58.78
2019-04-07T19:28:35.585Z,65.00
2019-04-07T19:31:09.284Z,68.02
2019-04-07T19:33:55.917Z,70.20
2019-04-07T19:36:27.386Z,72.92
2019-04-07T19:38:59.265Z,68.62
2019-04-07T19:41:48.984Z,69.37
2019-04-07T19:44:33.479Z,73.83
2019-04-07T19:47:01.583Z,78.47
2019-04-07T19:49:52.986Z,71.03
2019-04-07T19:52:41.300Z,77.80
2019-04-07T19:55:22.700Z,77.65
2019-04-07T19:58:02.743Z,80.60
2019-04-07T20:00:55.039Z,84.55
2019-04-07T20:03:24.279Z,82.78
2019-04-07T20:06:12.949Z,91.28
2019-04-07T20:08:45.835Z,87.25
2019-04-07T20:11:24.723Z,93.92
2019-04-07T20:14:13.953Z,96.75
2019-04-07T20:16:51.362Z,103.55
2019-04-07T20:19:28.750Z,102.80
2019-04-07T20:22:15.822Z,100.80
2019-04-07T20:25:08.698Z,99.37
2019-04-07T20:27:40.571Z,102.92
2019-04-07T20:30:19.351Z,103.78
2019-04-07T20:32:56.850Z,102.85
2019-04-07T20:35:31.336Z,97.57
2019-04-07T20:38:06.331Z,97.27
2019-04-07T20:40:42.001Z,94.67
2019-04-07T20:43:14.372Z,98.58
2019-04-07T20:45:50.070Z,95.30
2019-04-07T20:48:34.935Z,101.65
2019-04-07T20:51:12.885Z,98.00
2019-04-07T20:54:03.460Z,96.87
2019-04-07T20:56:50.218Z,96.57
2019-04-07T20:59:31.754Z,98.72
2019-04-07T21:02:09.424Z,100.55
2019-04-07T21:04:39.613Z,101.72
2019-04-07T21:07:29.948Z,104.90
2019-04-07T21:10:05.220Z,109.03
2019-04-07T21:12:37.606Z,102.95
2019-04-07T21:15:29.599Z,97.40
2019-04-07T21:18:15.821Z,99.22
2019-04-07T21:21:02.639Z,90.95
2019-04-07T21:23:49.787Z,99.47
2019-04-07T21:26:21.450Z,99.00
2019-04-07T21:28:56.669Z,104.47
2019-04-07T21:31:46.736Z,103.65
2019-04-07T21:34:23.966Z,107.07
2019-04-07T21:37:07.967Z,113.57
2019-04-07T21:39:51.576Z,108.17
2019-04-07T21:42:30.502Z,112.62
2019-04-07T21:45:05.802Z,111.10
2019-04-07T21:47:36.606Z,108.97
2019-04-07T21:50:10.404Z,109.37
2019-04-07T21:52:45.101Z,103.90
2019-04-07T21:55:33.550Z,105.80
2019-04-07T21:58:08.380Z,109.07
2019-04-07T22:00:52.979Z,103.60
2019-04-07T22:03:27.441Z,108.78
2019-04-07T22:06:05.515Z,97.25
2019-04-07T22:08:45.336Z,101.58
2019-04-07T22:11:15.531Z,97.82
2019-04-07T22:13:45.631Z,103.60
2019-04-07T22:16:16.372Z,105.60
2019-04-07T22:18:47.101Z,101.00
2019-04-07T22:21:17.285Z,105.72
2019-04-07T22:23:47.227Z,100.40
2019-04-07T22:26:19.134Z,103.47
2019-04-07T22:28:48.826Z,106.65
2019-04-07T22:31:20.674Z,107.80
2019-04-07T22:33:50.911Z,100.67
2019-04-07T22:36:21.099Z,102.25
2019-04-07T22:38:54.402Z,100.02
2019-04-07T22:41:24.958Z,96.00
2019-04-07T22:43:55.356Z,99.97
2019-04-07T22:46:27.153Z,96.60
2019-04-07T22:48:58.718Z,93.90
2019-04-07T22:51:28.840Z,97.33
2019-04-07T22:53:58.974Z,100.35
2019-04-07T22:56:30.984Z,98.05
2019-04-07T22:59:01.594Z,101.45
2019-04-07T23:01:31.807Z,104.10
2019-04-07T23:04:01.748Z,96.40
2019-04-07T23:06:36.295Z,96.53
2019-04-07T23:09:07.908Z,101.75
2019-04-07T23:11:38.090Z,96.90
2019-04-07T23:14:08.034Z,95.32
2019-04-07T23:16:38.083Z,91.47
2019-04-07T23:19:08.831Z,96.40
2019-04-07T23:21:39.659Z,91.45
2019-04-07T23:24:10.888Z,95.83
2019-04-07T23:26:41.030Z,95.40
2019-04-07T23:29:12.088Z,95.35
2019-04-07T23:31:42.222Z,94.47
2019-04-07T23:34:12.292Z,96.50
2019-04-07T23:36:42.496Z,93.07
2019-04-07T23:39:13.115Z,96.80
2019-04-07T23:41:43.549Z,95.10
2019-04-07T23:44:13.627Z,91.90
2019-04-07T23:46:43.621Z,93.42
2019-04-07T23:49:13.694Z,95.97
2019-04-07T23:51:43.705Z,94.13
2019-04-07T23:54:14.466Z,92.15
2019-04-07T23:56:44.832Z,91.22
2019-04-07T23:59:16.754Z,88.78
